createdAt,value
2023-07-24T00:00:33.825Z,0.00
2023-07-24T00:01:33.842Z,0.00
2023-07-24T00:02:33.863Z,0.00
2023-07-24T00:03:33.829Z,0.00
2023-07-24T00:04:33.798Z,0.00
2023-07-24T00:05:33.791Z,0.00
2023-07-24T00:06:33.766Z,0.00
2023-07-24T00:07:33.812Z,0.00
2023-07-24T00:08:33.796Z,0.00
2023-07-24T00:09:33.720Z,0.00
2023-07-24T00:10:33.760Z,0.00
2023-07-24T00:11:33.711Z,0.00
2023-07-24T00:12:33.733Z,0.00
2023-07-24T00:13:33.680Z,0.00
2023-07-24T00:14:33.687Z,0.00
2023-07-24T00:15:33.714Z,0.00
2023-07-24T00:16:33.827Z,0.00
2023-07-24T00:17:33.723Z,0.00
2023-07-24T00:18:33.666Z,0.00
2023-07-24T00:19:33.625Z,0.00
2023-07-24T00:20:33.680Z,0.00
2023-07-24T00:21:33.634Z,0.00
2023-07-24T00:22:33.633Z,0.00
2023-07-24T00:23:33.663Z,0.00
2023-07-24T00:24:33.635Z,0.00
2023-07-24T00:25:33.583Z,0.00
2023-07-24T00:26:33.558Z,0.00
2023-07-24T00:27:33.554Z,0.00
2023-07-24T00:28:33.563Z,0.00
2023-07-24T00:29:33.557Z,0.00
2023-07-24T00:30:33.519Z,0.00
2023-07-24T00:31:33.484Z,0.00
2023-07-24T00:32:33.531Z,0.00
2023-07-24T00:33:33.491Z,0.00
2023-07-24T00:34:33.498Z,0.00
2023-07-24T00:35:33.446Z,0.00
2023-07-24T00:36:33.518Z,0.00
2023-07-24T00:37:33.443Z,0.00
2023-07-24T00:38:33.449Z,0.00
2023-07-24T00:39:33.415Z,0.00
2023-07-24T00:40:33.399Z,0.00
2023-07-24T00:41:33.403Z,0.00
2023-07-24T00:42:33.382Z,0.00
2023-07-24T00:43:33.377Z,0.00
2023-07-24T00:44:33.390Z,0.00
2023-07-24T00:45:33.366Z,0.00
2023-07-24T00:46:34.130Z,0.00
2023-07-24T00:47:33.376Z,0.00
2023-07-24T00:48:33.363Z,0.00
2023-07-24T00:49:33.329Z,0.00
2023-07-24T00:50:33.291Z,0.00
2023-07-24T00:51:33.291Z,0.00
2023-07-24T00:52:33.293Z,0.00
2023-07-24T00:53:33.267Z,0.00
2023-07-24T00:54:33.285Z,0.00
2023-07-24T00:55:33.292Z,0.00
2023-07-24T00:56:33.376Z,0.00
2023-07-24T00:57:33.230Z,0.00
2023-07-24T00:58:33.221Z,0.00
2023-07-24T00:59:33.201Z,0.00
2023-07-24T01:00:33.241Z,0.00
2023-07-24T01:01:33.216Z,0.00
2023-07-24T01:02:33.221Z,0.00
2023-07-24T01:03:33.156Z,0.00
2023-07-24T01:04:33.190Z,0.00
2023-07-24T01:05:33.158Z,0.00
2023-07-24T01:06:33.314Z,0.00
2023-07-24T01:07:33.147Z,0.00
2023-07-24T01:08:33.132Z,0.00
2023-07-24T01:09:33.103Z,0.00
2023-07-24T01:10:33.903Z,0.00
2023-07-24T01:11:33.069Z,0.00
2023-07-24T01:12:33.067Z,0.00
2023-07-24T01:13:33.079Z,0.00
2023-07-24T01:14:33.049Z,0.00
2023-07-24T01:15:33.068Z,0.00
2023-07-24T01:16:33.243Z,0.00
2023-07-24T01:17:33.029Z,0.00
2023-07-24T01:18:33.021Z,0.00
2023-07-24T01:19:33.019Z,0.00
2023-07-24T01:20:32.986Z,0.00
2023-07-24T01:21:32.979Z,0.00
2023-07-24T01:22:32.964Z,0.00
2023-07-24T01:23:32.955Z,0.00
2023-07-24T01:24:32.968Z,0.00
2023-07-24T01:25:32.977Z,0.00
2023-07-24T01:26:32.995Z,0.00
2023-07-24T01:27:32.917Z,0.00
2023-07-24T01:28:32.908Z,0.00
2023-07-24T01:29:32.880Z,0.00
2023-07-24T01:30:32.916Z,0.00
2023-07-24T01:31:32.875Z,0.00
2023-07-24T01:32:32.881Z,0.00
2023-07-24T01:33:32.901Z,0.00
2023-07-24T01:34:32.830Z,0.00
2023-07-24T01:35:32.849Z,0.00
2023-07-24T01:36:33.056Z,0.00
2023-07-24T01:37:32.809Z,0.00
2023-07-24T01:38:32.811Z,0.00
2023-07-24T01:39:32.787Z,0.00
2023-07-24T01:40:32.787Z,0.00
2023-07-24T01:41:32.828Z,0.00
2023-07-24T01:42:32.751Z,0.00
2023-07-24T01:43:32.740Z,0.00
2023-07-24T01:44:32.749Z,0.00
2023-07-24T01:45:32.746Z,0.00
2023-07-24T01:46:33.024Z,0.00
2023-07-24T01:47:32.800Z,0.00
2023-07-24T01:48:32.718Z,0.00
2023-07-24T01:49:32.679Z,0.00
2023-07-24T01:50:32.703Z,0.00
2023-07-24T01:51:32.672Z,0.00
2023-07-24T01:52:32.676Z,0.00
2023-07-24T01:53:32.638Z,0.00
2023-07-24T01:54:32.661Z,0.00
2023-07-24T01:55:32.609Z,0.00
2023-07-24T01:56:33.015Z,0.00
2023-07-24T01:57:32.594Z,0.00
2023-07-24T01:58:34.439Z,0.00
2023-07-24T01:59:33.424Z,0.00
2023-07-24T02:00:32.609Z,0.00
2023-07-24T02:01:32.581Z,0.00
2023-07-24T02:02:32.684Z,0.00
2023-07-24T02:03:32.608Z,0.00
2023-07-24T02:04:32.518Z,0.00
2023-07-24T02:05:32.534Z,0.00
2023-07-24T02:06:32.659Z,0.00
2023-07-24T02:07:32.498Z,0.00
2023-07-24T02:08:32.486Z,0.00
2023-07-24T02:09:32.485Z,0.00
2023-07-24T02:10:32.495Z,0.00
2023-07-24T02:11:32.465Z,0.00
2023-07-24T02:12:32.473Z,0.00
2023-07-24T02:13:32.431Z,0.00
2023-07-24T02:14:32.414Z,0.00
2023-07-24T02:15:32.418Z,0.00
2023-07-24T02:16:32.651Z,0.00
2023-07-24T02:17:32.410Z,0.00
2023-07-24T02:18:32.361Z,0.00
2023-07-24T02:19:32.380Z,0.00
2023-07-24T02:20:32.383Z,0.00
2023-07-24T02:21:32.348Z,0.00
2023-07-24T02:22:32.324Z,0.00
2023-07-24T02:23:32.373Z,0.00
2023-07-24T02:24:32.377Z,0.00
2023-07-24T02:25:32.301Z,0.00
2023-07-24T02:26:32.471Z,0.00
2023-07-24T02:27:32.372Z,0.00
2023-07-24T02:28:32.308Z,0.00
2023-07-24T02:29:32.259Z,0.00
2023-07-24T02:30:32.250Z,0.00
2023-07-24T02:31:32.273Z,0.00
2023-07-24T02:32:32.240Z,0.00
2023-07-24T02:33:32.238Z,0.00
2023-07-24T02:34:32.207Z,0.00
2023-07-24T02:35:32.198Z,0.00
2023-07-24T02:36:32.301Z,0.00
2023-07-24T02:37:32.166Z,0.00
2023-07-24T02:38:32.163Z,0.00
2023-07-24T02:39:32.179Z,0.00
2023-07-24T02:40:32.130Z,0.00
2023-07-24T02:41:32.150Z,0.00
2023-07-24T02:42:32.117Z,0.00
2023-07-24T02:43:32.127Z,0.00
2023-07-24T02:44:32.087Z,0.00
2023-07-24T02:45:32.156Z,0.00
2023-07-24T02:46:32.532Z,0.00
2023-07-24T02:47:32.979Z,0.00
2023-07-24T02:48:32.068Z,0.00
2023-07-24T02:49:32.072Z,0.00
2023-07-24T02:50:32.057Z,0.00
2023-07-24T02:51:32.030Z,0.00
2023-07-24T02:52:32.007Z,0.00
2023-07-24T02:53:32.015Z,0.00
2023-07-24T02:54:31.997Z,0.00
2023-07-24T02:55:32.048Z,0.00
2023-07-24T02:56:32.181Z,0.00
2023-07-24T02:57:31.985Z,0.00
2023-07-24T02:58:31.958Z,0.00
2023-07-24T02:59:31.946Z,0.00
2023-07-24T03:00:31.932Z,0.00
2023-07-24T03:01:31.965Z,0.00
2023-07-24T03:02:32.041Z,0.00
2023-07-24T03:03:32.005Z,0.00
2023-07-24T03:04:31.887Z,0.00
2023-07-24T03:05:38.429Z,0.00
2023-07-24T03:06:32.177Z,0.00
2023-07-24T03:07:31.856Z,0.00
2023-07-24T03:08:31.852Z,0.00
2023-07-24T03:09:31.884Z,0.00
2023-07-24T03:10:31.861Z,0.00
2023-07-24T03:11:31.803Z,0.00
2023-07-24T03:12:31.836Z,0.00
2023-07-24T03:13:31.834Z,0.00
2023-07-24T03:14:31.804Z,0.00
2023-07-24T03:15:31.875Z,0.00
2023-07-24T03:16:32.055Z,0.00
2023-07-24T03:17:31.794Z,0.00
2023-07-24T03:18:31.760Z,0.00
2023-07-24T03:19:31.717Z,0.00
2023-07-24T03:20:31.737Z,0.00
2023-07-24T03:21:31.739Z,0.00
2023-07-24T03:22:31.698Z,0.00
2023-07-24T03:23:31.716Z,0.00
2023-07-24T03:24:31.636Z,1.00
2023-07-24T03:25:31.657Z,1.00
2023-07-24T03:26:32.007Z,1.00
2023-07-24T03:27:31.597Z,1.00
2023-07-24T03:28:31.593Z,1.00
2023-07-24T03:29:31.568Z,1.00
2023-07-24T03:30:38.462Z,1.00
2023-07-24T03:31:31.631Z,2.00
2023-07-24T03:32:31.548Z,2.00
2023-07-24T03:33:31.517Z,2.00
2023-07-24T03:34:31.505Z,2.00
2023-07-24T03:35:31.496Z,2.00
2023-07-24T03:36:31.777Z,2.00
2023-07-24T03:37:31.568Z,0.00
2023-07-24T03:38:31.536Z,0.00
2023-07-24T03:39:31.473Z,1.00
2023-07-24T03:40:31.457Z,2.00
2023-07-24T03:41:31.466Z,2.00
2023-07-24T03:42:31.485Z,1.00
2023-07-24T03:43:31.447Z,1.00
2023-07-24T03:44:31.415Z,1.00
2023-07-24T03:45:31.409Z,1.00
2023-07-24T03:46:31.680Z,2.00
2023-07-24T03:47:31.400Z,3.00
2023-07-24T03:48:31.388Z,3.00
2023-07-24T03:49:31.371Z,2.00
2023-07-24T03:50:31.358Z,3.00
2023-07-24T03:51:31.357Z,3.00
2023-07-24T03:52:31.327Z,2.00
2023-07-24T03:53:32.929Z,1.00
2023-07-24T03:54:31.299Z,9.00
2023-07-24T03:55:31.421Z,5.00
2023-07-24T03:56:31.552Z,2.00
2023-07-24T03:57:31.271Z,2.00
2023-07-24T03:58:31.273Z,4.00
2023-07-24T03:59:31.281Z,8.00
2023-07-24T04:00:31.246Z,8.00
2023-07-24T04:01:31.230Z,10.00
2023-07-24T04:02:31.237Z,8.00
2023-07-24T04:03:31.238Z,8.00
2023-07-24T04:04:31.242Z,8.00
2023-07-24T04:05:31.190Z,11.00
2023-07-24T04:06:31.540Z,13.00
2023-07-24T04:07:31.159Z,13.00
2023-07-24T04:08:31.182Z,15.00
2023-07-24T04:09:31.156Z,11.00
2023-07-24T04:10:31.145Z,11.00
2023-07-24T04:11:31.127Z,15.00
2023-07-24T04:12:31.150Z,20.00
2023-07-24T04:13:31.100Z,14.00
2023-07-24T04:14:31.099Z,13.00
2023-07-24T04:15:31.117Z,14.00
2023-07-24T04:16:31.105Z,15.00
2023-07-24T04:17:31.108Z,10.00
2023-07-24T04:18:31.059Z,12.00
2023-07-24T04:19:31.042Z,17.00
2023-07-24T04:20:31.053Z,22.00
2023-07-24T04:21:31.023Z,25.00
2023-07-24T04:22:31.031Z,26.00
2023-07-24T04:23:31.014Z,30.00
2023-07-24T04:24:31.019Z,30.00
2023-07-24T04:25:31.036Z,31.00
2023-07-24T04:26:31.275Z,24.00
2023-07-24T04:27:30.952Z,30.00
2023-07-24T04:28:30.979Z,34.00
2023-07-24T04:29:30.960Z,33.00
2023-07-24T04:30:31.119Z,40.00
2023-07-24T04:31:30.934Z,35.00
2023-07-24T04:32:30.956Z,26.00
2023-07-24T04:33:31.154Z,35.00
2023-07-24T04:34:30.916Z,32.00
2023-07-24T04:35:30.870Z,22.00
2023-07-24T04:36:31.390Z,34.00
2023-07-24T04:37:30.859Z,22.00
2023-07-24T04:38:30.839Z,26.00
2023-07-24T04:39:30.873Z,20.00
2023-07-24T04:40:30.862Z,17.00
2023-07-24T04:41:30.813Z,6.00
2023-07-24T04:42:30.802Z,9.00
2023-07-24T04:43:30.796Z,8.00
2023-07-24T04:44:30.794Z,20.00
2023-07-24T04:45:30.782Z,21.00
2023-07-24T04:46:31.276Z,39.00
2023-07-24T04:47:30.768Z,48.00
2023-07-24T04:48:30.744Z,64.00
2023-07-24T04:49:30.731Z,75.00
2023-07-24T04:50:30.730Z,63.00
2023-07-24T04:51:30.773Z,79.00
2023-07-24T04:52:30.726Z,76.00
2023-07-24T04:53:30.699Z,63.00
2023-07-24T04:54:30.658Z,81.00
2023-07-24T04:55:30.655Z,74.00
2023-07-24T04:56:31.024Z,78.00
2023-07-24T04:57:30.674Z,122.00
2023-07-24T04:58:30.668Z,147.00
2023-07-24T04:59:30.622Z,103.00
2023-07-24T05:00:30.635Z,76.00
2023-07-24T05:01:30.686Z,73.00
2023-07-24T05:02:30.709Z,94.00
2023-07-24T05:03:30.582Z,93.00
2023-07-24T05:04:30.589Z,90.00
2023-07-24T05:05:31.473Z,76.00
2023-07-24T05:06:30.961Z,73.00
2023-07-24T05:07:30.580Z,83.00
2023-07-24T05:08:30.546Z,89.00
2023-07-24T05:09:30.558Z,96.00
2023-07-24T05:10:30.629Z,78.00
2023-07-24T05:11:30.583Z,73.00
2023-07-24T05:12:30.554Z,52.00
2023-07-24T05:13:30.632Z,59.00
2023-07-24T05:14:30.485Z,53.00
2023-07-24T05:15:30.547Z,139.00
2023-07-24T05:16:30.712Z,101.00
2023-07-24T05:17:30.591Z,184.00
2023-07-24T05:18:30.424Z,175.00
2023-07-24T05:19:30.428Z,158.00
2023-07-24T05:20:30.389Z,131.00
2023-07-24T05:21:30.416Z,104.00
2023-07-24T05:22:30.376Z,114.00
2023-07-24T05:23:30.367Z,203.00
2023-07-24T05:24:30.456Z,215.00
2023-07-24T05:25:30.333Z,193.00
2023-07-24T05:26:30.543Z,201.00
2023-07-24T05:27:30.319Z,198.00
2023-07-24T05:28:30.336Z,176.00
2023-07-24T05:29:30.317Z,148.00
2023-07-24T05:30:30.290Z,177.00
2023-07-24T05:31:30.373Z,187.00
2023-07-24T05:32:30.302Z,187.00
2023-07-24T05:33:30.264Z,141.00
2023-07-24T05:34:30.264Z,151.00
2023-07-24T05:35:30.236Z,150.00
2023-07-24T05:36:30.398Z,120.00
2023-07-24T05:37:30.254Z,107.00
2023-07-24T05:38:30.255Z,98.00
2023-07-24T05:39:30.212Z,100.00
2023-07-24T05:40:30.173Z,229.00
2023-07-24T05:41:30.172Z,246.00
2023-07-24T05:42:30.157Z,236.00
2023-07-24T05:43:30.186Z,210.00
2023-07-24T05:44:30.144Z,144.00
2023-07-24T05:48:22.922Z,309.00
2023-07-24T05:48:51.355Z,250.00
2023-07-24T05:49:51.353Z,260.00
2023-07-24T05:50:51.356Z,352.00
2023-07-24T05:51:51.359Z,402.00
2023-07-24T05:52:51.356Z,369.00
2023-07-24T05:58:36.489Z,370.00
2023-07-24T05:59:37.486Z,365.00
2023-07-24T06:00:37.458Z,375.00
2023-07-24T06:01:37.479Z,384.00
2023-07-24T06:02:37.440Z,374.00
2023-07-24T06:03:37.461Z,374.00
2023-07-24T06:04:37.502Z,385.00
2023-07-24T06:05:37.445Z,367.00
2023-07-24T06:06:37.411Z,371.00
2023-07-24T06:07:37.387Z,358.00
2023-07-24T06:08:37.356Z,369.00
2023-07-24T06:09:37.358Z,369.00
2023-07-24T06:10:37.381Z,352.00
2023-07-24T06:11:37.334Z,340.00
2023-07-24T06:12:37.357Z,359.00
2023-07-24T06:13:37.323Z,359.00
2023-07-24T06:14:37.309Z,355.00
2023-07-24T06:15:37.288Z,377.00
2023-07-24T06:16:37.325Z,357.00
2023-07-24T06:17:37.317Z,351.00
2023-07-24T06:18:37.269Z,410.00
2023-07-24T06:19:37.256Z,405.00
2023-07-24T06:20:37.237Z,377.00
2023-07-24T06:21:37.255Z,397.00
2023-07-24T06:22:37.229Z,370.00
2023-07-24T06:23:37.248Z,446.00
2023-07-24T06:24:37.277Z,307.00
2023-07-24T06:25:37.186Z,541.00
2023-07-24T06:26:37.215Z,428.00
2023-07-24T06:27:37.193Z,468.00
2023-07-24T06:28:37.202Z,483.00
2023-07-24T06:29:39.858Z,483.00
2023-07-24T06:30:37.129Z,482.00
2023-07-24T06:31:37.200Z,491.00
2023-07-24T06:32:37.136Z,482.00
2023-07-24T06:33:37.133Z,476.00
2023-07-24T06:34:37.134Z,531.00
2023-07-24T06:35:37.091Z,556.00
2023-07-24T06:36:37.081Z,543.00
2023-07-24T06:37:37.090Z,525.00
2023-07-24T06:38:37.064Z,537.00
2023-07-24T06:39:37.068Z,550.00
2023-07-24T06:40:37.032Z,555.00
2023-07-24T06:41:37.046Z,543.00
2023-07-24T06:42:37.028Z,538.00
2023-07-24T06:43:37.005Z,544.00
2023-07-24T06:44:37.044Z,561.00
2023-07-24T06:45:37.028Z,561.00
2023-07-24T06:46:36.989Z,549.00
2023-07-24T06:47:37.018Z,527.00
2023-07-24T06:48:36.958Z,461.00
2023-07-24T06:49:36.957Z,477.00
2023-07-24T06:50:36.930Z,488.00
2023-07-24T06:51:36.938Z,482.00
2023-07-24T06:52:36.978Z,482.00
2023-07-24T06:53:36.892Z,430.00
2023-07-24T06:54:36.878Z,434.00
2023-07-24T06:55:36.893Z,423.00
2023-07-24T06:56:36.877Z,442.00
2023-07-24T06:57:36.861Z,411.00
2023-07-24T06:58:36.842Z,445.00
2023-07-24T06:59:36.856Z,399.00
2023-07-24T07:00:36.852Z,404.00
2023-07-24T07:01:36.926Z,353.00
2023-07-24T07:02:36.821Z,330.00
2023-07-24T07:03:36.855Z,348.00
2023-07-24T07:04:36.782Z,312.00
2023-07-24T07:05:36.761Z,390.00
2023-07-24T07:06:37.598Z,342.00
2023-07-24T07:07:36.760Z,180.00
2023-07-24T07:08:36.770Z,307.00
2023-07-24T07:09:36.772Z,310.00
2023-07-24T07:10:36.732Z,284.00
2023-07-24T07:11:36.715Z,266.00
2023-07-24T07:12:36.693Z,224.00
2023-07-24T07:13:36.679Z,181.00
2023-07-24T07:14:36.683Z,195.00
2023-07-24T07:15:36.757Z,103.00
2023-07-24T07:16:36.680Z,167.00
2023-07-24T07:17:36.687Z,125.00
2023-07-24T07:18:36.662Z,79.00
2023-07-24T07:19:36.620Z,206.00
2023-07-24T07:20:36.620Z,115.00
2023-07-24T07:21:36.594Z,246.00
2023-07-24T07:22:36.625Z,435.00
2023-07-24T07:23:36.585Z,445.00
2023-07-24T07:24:36.597Z,614.00
2023-07-24T07:25:36.575Z,563.00
2023-07-24T07:26:36.561Z,600.00
2023-07-24T07:27:36.539Z,653.00
2023-07-24T07:28:36.557Z,671.00
2023-07-24T07:29:36.526Z,672.00
2023-07-24T07:30:37.658Z,596.00
2023-07-24T07:31:36.583Z,633.00
2023-07-24T07:32:36.537Z,597.00
2023-07-24T07:33:36.479Z,565.00
2023-07-24T07:34:36.469Z,572.00
2023-07-24T07:35:36.458Z,488.00
2023-07-24T07:36:36.435Z,358.00
2023-07-24T07:37:36.460Z,469.00
2023-07-24T07:38:36.458Z,597.00
2023-07-24T07:39:36.422Z,627.00
2023-07-24T07:40:36.406Z,588.00
2023-07-24T07:41:36.407Z,541.00
2023-07-24T07:42:38.190Z,545.00
2023-07-24T07:43:36.373Z,510.00
2023-07-24T07:44:36.353Z,487.00
2023-07-24T07:45:36.355Z,393.00
2023-07-24T07:46:36.363Z,347.00
2023-07-24T07:47:36.434Z,630.00
2023-07-24T07:48:36.401Z,715.00
2023-07-24T07:49:36.571Z,527.00
2023-07-24T07:50:36.294Z,462.00
2023-07-24T07:51:36.384Z,550.00
2023-07-24T07:52:36.285Z,694.00
2023-07-24T07:53:36.261Z,666.00
2023-07-24T07:54:36.276Z,775.00
2023-07-24T07:55:36.243Z,961.00
2023-07-24T07:56:36.237Z,625.00
2023-07-24T07:57:36.205Z,405.00
2023-07-24T07:58:36.209Z,538.00
2023-07-24T07:59:36.630Z,390.00
2023-07-24T08:00:36.200Z,331.00
2023-07-24T08:01:36.188Z,394.00
2023-07-24T08:02:36.179Z,262.00
2023-07-24T08:03:36.179Z,154.00
2023-07-24T08:04:36.165Z,519.00
2023-07-24T08:05:36.142Z,540.00
2023-07-24T08:06:36.160Z,965.00
2023-07-24T08:07:36.114Z,656.00
2023-07-24T08:08:36.104Z,531.00
2023-07-24T08:09:36.112Z,398.00
2023-07-24T08:10:36.087Z,127.00
2023-07-24T08:11:36.106Z,150.00
2023-07-24T08:12:36.066Z,632.00
2023-07-24T08:13:36.037Z,326.00
2023-07-24T08:14:36.085Z,225.00
2023-07-24T08:15:36.035Z,420.00
2023-07-24T08:16:36.172Z,427.00
2023-07-24T08:17:36.076Z,250.00
2023-07-24T08:18:36.045Z,107.00
2023-07-24T08:19:35.987Z,302.00
2023-07-24T08:20:35.960Z,321.00
2023-07-24T08:21:35.976Z,361.00
2023-07-24T08:22:36.026Z,283.00
2023-07-24T08:23:35.946Z,287.00
2023-07-24T08:24:35.976Z,305.00
2023-07-24T08:25:35.924Z,221.00
2023-07-24T08:26:35.975Z,316.00
2023-07-24T08:27:45.292Z,398.00
2023-07-24T08:28:35.909Z,197.00
2023-07-24T08:29:35.909Z,240.00
2023-07-24T08:30:36.025Z,489.00
2023-07-24T08:31:35.947Z,750.00
2023-07-24T08:32:35.862Z,814.00
2023-07-24T08:33:35.826Z,534.00
2023-07-24T08:34:35.856Z,406.00
2023-07-24T08:35:35.812Z,243.00
2023-07-24T08:36:35.816Z,203.00
2023-07-24T08:37:35.784Z,669.00
2023-07-24T08:38:35.770Z,893.00
2023-07-24T08:39:35.809Z,680.00
2023-07-24T08:40:35.768Z,453.00
2023-07-24T08:41:36.523Z,363.00
2023-07-24T08:42:35.730Z,326.00
2023-07-24T08:43:35.744Z,178.00
2023-07-24T08:44:35.773Z,439.00
2023-07-24T08:45:35.761Z,773.00
2023-07-24T08:46:35.708Z,502.00
2023-07-24T08:47:35.722Z,157.00
2023-07-24T08:48:35.709Z,162.00
2023-07-24T08:49:35.663Z,377.00
2023-07-24T08:50:35.651Z,664.00
2023-07-24T08:51:35.635Z,745.00
2023-07-24T08:52:36.757Z,616.00
2023-07-24T08:53:35.630Z,704.00
2023-07-24T08:54:35.645Z,718.00
2023-07-24T08:55:35.613Z,825.00
2023-07-24T08:56:35.586Z,797.00
2023-07-24T08:57:35.572Z,665.00
2023-07-24T08:58:35.585Z,637.00
2023-07-24T08:59:35.599Z,568.00
2023-07-24T09:00:35.602Z,377.00
2023-07-24T09:01:35.566Z,227.00
2023-07-24T09:02:35.608Z,243.00
2023-07-24T09:03:35.597Z,263.00
2023-07-24T09:04:35.503Z,192.00
2023-07-24T09:05:35.499Z,136.00
2023-07-24T09:06:35.490Z,144.00
2023-07-24T09:07:35.513Z,158.00
2023-07-24T09:08:35.459Z,232.00
2023-07-24T09:09:35.475Z,479.00
2023-07-24T09:10:35.511Z,703.00
2023-07-24T09:11:35.470Z,864.00
2023-07-24T09:12:35.428Z,887.00
2023-07-24T09:13:35.420Z,808.00
2023-07-24T09:14:35.425Z,665.00
2023-07-24T09:15:35.431Z,680.00
2023-07-24T09:16:36.021Z,775.00
2023-07-24T09:17:35.783Z,838.00
2023-07-24T09:18:35.366Z,829.00
2023-07-24T09:19:35.382Z,897.00
2023-07-24T09:20:35.339Z,787.00
2023-07-24T09:21:35.368Z,719.00
2023-07-24T09:22:35.355Z,747.00
2023-07-24T09:23:35.321Z,631.00
2023-07-24T09:24:35.333Z,894.00
2023-07-24T09:25:35.961Z,740.00
2023-07-24T09:26:35.278Z,830.00
2023-07-24T09:27:35.995Z,871.00
2023-07-24T09:28:35.283Z,928.00
2023-07-24T09:29:35.253Z,876.00
2023-07-24T09:30:35.307Z,989.00
2023-07-24T09:31:35.234Z,1155.00
2023-07-24T09:32:35.405Z,1195.00
2023-07-24T09:33:35.192Z,777.00
2023-07-24T09:34:35.192Z,631.00
2023-07-24T09:35:35.563Z,527.00
2023-07-24T09:36:35.166Z,446.00
2023-07-24T09:37:35.224Z,483.00
2023-07-24T09:38:35.154Z,686.00
2023-07-24T09:39:35.470Z,698.00
2023-07-24T09:40:35.121Z,591.00
2023-07-24T09:41:35.149Z,530.00
2023-07-24T09:42:35.162Z,583.00
2023-07-24T09:43:39.693Z,612.00
2023-07-24T09:44:35.105Z,787.00
2023-07-24T09:45:36.501Z,1127.00
2023-07-24T09:46:46.186Z,946.00
2023-07-24T09:47:54.997Z,761.00
2023-07-24T09:49:35.087Z,866.00
2023-07-24T09:50:35.084Z,1100.00
2023-07-24T09:51:35.005Z,867.00
2023-07-24T09:52:35.007Z,796.00
2023-07-24T09:53:34.995Z,860.00
2023-07-24T09:54:34.982Z,803.00
2023-07-24T09:55:35.027Z,488.00
2023-07-24T09:56:47.467Z,440.00
2023-07-24T09:57:34.952Z,555.00
2023-07-24T09:58:34.943Z,459.00
2023-07-24T09:59:34.948Z,421.00
2023-07-24T10:00:34.923Z,498.00
2023-07-24T10:01:35.279Z,762.00
2023-07-24T10:02:34.947Z,1005.00
2023-07-24T10:03:34.889Z,1056.00
2023-07-24T10:04:34.925Z,941.00
2023-07-24T10:05:34.870Z,1000.00
2023-07-24T10:06:34.905Z,914.00
2023-07-24T10:07:34.864Z,763.00
2023-07-24T10:08:34.850Z,661.00
2023-07-24T10:09:34.840Z,906.00
2023-07-24T10:10:34.798Z,945.00
2023-07-24T10:11:35.108Z,643.00
2023-07-24T10:12:34.787Z,699.00
2023-07-24T10:13:34.780Z,794.00
2023-07-24T10:14:34.771Z,806.00
2023-07-24T10:15:34.792Z,687.00
2023-07-24T10:16:34.845Z,483.00
2023-07-24T10:17:34.807Z,425.00
2023-07-24T10:18:34.744Z,602.00
2023-07-24T10:19:34.759Z,802.00
2023-07-24T10:20:34.785Z,831.00
2023-07-24T10:21:35.047Z,731.00
2023-07-24T10:22:34.685Z,550.00
2023-07-24T10:23:34.723Z,967.00
2023-07-24T10:24:41.612Z,1009.00
2023-07-24T10:25:34.656Z,1021.00
2023-07-24T10:26:35.006Z,1190.00
2023-07-24T10:27:34.644Z,1133.00
2023-07-24T10:28:34.656Z,808.00
2023-07-24T10:29:34.612Z,438.00
2023-07-24T10:30:35.604Z,838.00
2023-07-24T10:31:35.062Z,1618.00
2023-07-24T10:32:34.725Z,1128.00
2023-07-24T10:33:34.770Z,904.00
2023-07-24T10:34:34.580Z,756.00
2023-07-24T10:35:34.537Z,892.00
2023-07-24T10:36:34.560Z,836.00
2023-07-24T10:37:34.528Z,696.00
2023-07-24T10:38:35.259Z,585.00
2023-07-24T10:39:34.520Z,426.00
2023-07-24T10:40:34.527Z,351.00
2023-07-24T10:41:34.478Z,269.00
2023-07-24T10:42:34.542Z,197.00
2023-07-24T10:43:34.453Z,368.00
2023-07-24T10:44:34.465Z,574.00
2023-07-24T10:45:34.448Z,573.00
2023-07-24T10:46:34.430Z,419.00
2023-07-24T10:47:34.468Z,265.00
2023-07-24T10:48:34.440Z,275.00
2023-07-24T10:49:34.390Z,331.00
2023-07-24T10:50:34.393Z,371.00
2023-07-24T10:51:34.504Z,319.00
2023-07-24T10:52:34.371Z,279.00
2023-07-24T10:53:34.354Z,285.00
2023-07-24T10:54:34.368Z,330.00
2023-07-24T10:55:34.347Z,289.00
2023-07-24T10:56:34.348Z,180.00
2023-07-24T10:57:34.327Z,451.00
2023-07-24T10:58:34.325Z,450.00
2023-07-24T10:59:34.319Z,240.00
2023-07-24T11:00:34.292Z,231.00
2023-07-24T11:01:34.952Z,421.00
2023-07-24T11:02:34.285Z,535.00
2023-07-24T11:03:34.245Z,354.00
2023-07-24T11:04:34.276Z,185.00
2023-07-24T11:05:34.222Z,77.00
2023-07-24T11:06:34.223Z,48.00
2023-07-24T11:07:34.255Z,207.00
2023-07-24T11:08:34.237Z,91.00
2023-07-24T11:09:34.191Z,311.00
2023-07-24T11:10:34.225Z,499.00
2023-07-24T11:11:34.814Z,230.00
2023-07-24T11:12:34.156Z,142.00
2023-07-24T11:13:34.160Z,524.00
2023-07-24T11:14:34.197Z,120.00
2023-07-24T11:15:34.240Z,331.00
2023-07-24T11:16:34.849Z,197.00
2023-07-24T11:17:34.190Z,260.00
2023-07-24T11:18:44.331Z,237.00
2023-07-24T11:19:34.169Z,291.00
2023-07-24T11:20:34.062Z,162.00
2023-07-24T11:21:34.358Z,186.00
2023-07-24T11:22:34.073Z,205.00
2023-07-24T11:23:34.073Z,217.00
2023-07-24T11:24:34.074Z,362.00
2023-07-24T11:25:34.064Z,432.00
2023-07-24T11:26:34.021Z,485.00
2023-07-24T11:27:34.009Z,532.00
2023-07-24T11:28:34.023Z,572.00
2023-07-24T11:29:34.013Z,562.00
2023-07-24T11:30:33.962Z,615.00
2023-07-24T11:31:34.347Z,559.00
2023-07-24T11:32:33.998Z,629.00
2023-07-24T11:33:33.943Z,619.00
2023-07-24T11:34:34.025Z,647.00
2023-07-24T11:35:33.902Z,828.00
2023-07-24T11:36:33.903Z,1417.00
2023-07-24T11:37:33.899Z,1393.00
2023-07-24T11:38:33.890Z,1026.00
2023-07-24T11:39:33.868Z,944.00
2023-07-24T11:40:33.916Z,842.00
2023-07-24T11:41:34.286Z,897.00
2023-07-24T11:42:33.876Z,883.00
2023-07-24T11:43:33.831Z,1028.00
2023-07-24T11:44:33.812Z,689.00
2023-07-24T11:45:33.851Z,536.00
2023-07-24T11:46:33.891Z,518.00
2023-07-24T11:47:33.841Z,384.00
2023-07-24T11:48:33.795Z,297.00
2023-07-24T11:49:33.764Z,315.00
2023-07-24T11:50:33.751Z,334.00
2023-07-24T11:51:34.068Z,460.00
2023-07-24T11:52:35.507Z,495.00
2023-07-24T11:53:33.726Z,500.00
2023-07-24T11:54:33.718Z,615.00
2023-07-24T11:55:33.733Z,728.00
2023-07-24T11:56:33.733Z,748.00
2023-07-24T11:57:33.704Z,587.00
2023-07-24T11:58:33.682Z,539.00
2023-07-24T11:59:33.663Z,508.00
2023-07-24T12:00:34.877Z,424.00
2023-07-24T12:01:34.087Z,354.00
2023-07-24T12:02:33.985Z,391.00
2023-07-24T12:03:33.765Z,443.00
2023-07-24T12:04:33.729Z,333.00
2023-07-24T12:05:33.680Z,365.00
2023-07-24T12:06:33.694Z,601.00
2023-07-24T12:07:33.668Z,932.00
2023-07-24T12:08:33.627Z,661.00
2023-07-24T12:09:33.657Z,1318.00
2023-07-24T12:10:33.568Z,1233.00
2023-07-24T12:11:33.562Z,1162.00
2023-07-24T12:12:33.557Z,1690.00
2023-07-24T12:13:33.589Z,549.00
2023-07-24T12:14:33.504Z,2779.00
2023-07-24T12:15:33.504Z,2610.00
2023-07-24T12:16:33.483Z,2651.00
2023-07-24T12:17:33.516Z,2722.00
2023-07-24T12:18:33.467Z,2701.00
2023-07-24T12:19:33.493Z,2749.00
2023-07-24T12:20:33.439Z,2753.00
2023-07-24T12:21:33.875Z,2798.00
2023-07-24T12:22:33.500Z,2788.00
2023-07-24T12:23:33.413Z,2854.00
2023-07-24T12:24:33.420Z,2947.00
2023-07-24T12:25:33.421Z,2957.00
2023-07-24T12:26:33.381Z,3135.00
2023-07-24T12:27:33.350Z,4710.00
2023-07-24T12:28:33.368Z,2619.00
2023-07-24T12:29:33.337Z,949.00
2023-07-24T12:30:33.410Z,2326.00
2023-07-24T12:31:33.591Z,850.00
2023-07-24T12:32:33.435Z,3179.00
2023-07-24T12:33:33.301Z,3143.00
2023-07-24T12:34:33.285Z,3329.00
2023-07-24T12:35:33.288Z,2662.00
2023-07-24T12:36:33.286Z,2658.00
2023-07-24T12:37:33.261Z,2207.00
2023-07-24T12:38:33.299Z,1465.00
2023-07-24T12:39:33.242Z,1254.00
2023-07-24T12:40:33.236Z,1249.00
2023-07-24T12:41:33.549Z,973.00
2023-07-24T12:42:33.217Z,775.00
2023-07-24T12:43:33.205Z,637.00
2023-07-24T12:44:33.213Z,618.00
2023-07-24T12:45:33.173Z,1321.00
2023-07-24T12:46:33.235Z,1129.00
2023-07-24T12:47:33.192Z,1170.00
2023-07-24T12:48:33.174Z,1337.00
2023-07-24T12:49:33.130Z,1629.00
2023-07-24T12:50:33.123Z,2397.00
2023-07-24T12:51:33.429Z,999.00
2023-07-24T12:52:33.104Z,1479.00